Latest Weather Observations for Larapuna (Eddystone Point)

IDT60801

Issued at 8:31 pm EDT Monday 17 December 2018 (issued every 10 minutes, with the page automatically refreshed every 10 minutes)

About weather observations | Map of weather stations | Latest weather observations for TAS | Other Formats
Station Details ID: 092045 Name: LARAPUNA (EDDYSTONE POINT) Lat: -40.99 Lon: 148.35 Height: 19.7 m
Data from the previous 72 hours. | See also: Recent months at Larapuna (Eddystone Point)
Date/Time
EDT
Temp
°C
App
Temp
°C
Dew
Point
°C
Rel
Hum
%
Delta-T
°C
Wind Press
QNH
hPa
Press
MSL
hPa
Rain since
9am
mm
Dir  Spd
km/h
Gust
km/h
Spd
kts
Gust
kts
17/08:30pm 17.3 11.2 14.0 81 1.9 SSE 39 48 21 26 1010.8 1010.8 0.0
17/08:00pm 17.4 13.9 14.5 83 1.7 SE 26 33 14 18 1010.1 1010.1 0.0
17/07:30pm 17.7 14.7 14.8 83 1.7 SE 24 32 13 17 1009.7 1009.7 0.0
17/07:00pm 17.8 14.9 15.1 84 1.6 SE 24 32 13 17 1009.2 1009.2 0.0
17/06:30pm 17.8 14.2 15.2 85 1.5 SE 28 35 15 19 1008.5 1008.5 0.0
17/06:13pm 18.3 14.0 15.9 86 1.4 SE 33 48 18 26 1008.0 1008.0 0.0
17/06:00pm 18.4 13.2 15.5 83 1.7 SSE 37 52 20 28 1007.6 1007.6 0.0
17/05:53pm 19.1 16.8 15.6 80 2.1 SSW 22 41 12 22 1007.1 1007.1 0.0
17/05:30pm 20.7 20.2 15.9 74 2.9 S 13 17 7 9 1006.8 1006.8 0.0
17/05:00pm 21.6 20.5 16.3 72 3.2 NW 17 24 9 13 1006.0 1006.0 0.0
17/04:30pm 21.3 17.5 15.8 71 3.3 NW 30 41 16 22 1005.6 1005.6 0.0
17/04:00pm 21.6 17.5 15.9 70 3.4 NW 32 39 17 21 1005.5 1005.5 0.0
17/03:30pm 23.1 19.9 16.2 65 4.2 NW 28 35 15 19 1005.2 1005.2 0.0
17/03:00pm 22.8 18.8 16.1 66 4.1 NW 32 43 17 23 1005.3 1005.3 0.0
17/02:30pm 23.0 18.8 15.8 64 4.3 WNW 32 41 17 22 1005.0 1005.0 0.0
17/02:00pm 22.5 18.1 15.6 65 4.2 NW 33 43 18 23 1005.0 1005.0 0.0
17/01:30pm 23.0 20.0 15.8 64 4.3 NW 26 39 14 21 1004.9 1004.9 0.0
17/01:00pm 21.9 17.9 15.3 66 3.9 NW 30 41 16 22 1004.9 1004.9 0.0
17/12:30pm 22.2 18.0 15.8 67 3.8 NW 32 43 17 23 1004.8 1004.8 0.0
17/12:00pm 21.7 18.6 15.5 68 3.7 NW 26 35 14 19 1005.1 1005.1 0.0
17/11:30am 20.3 16.6 14.9 71 3.2 WNW 28 46 15 25 1005.4 1005.4 0.0
17/11:24am 20.4 16.2 15.6 74 2.9 WNW 32 46 17 25 1005.4 1005.4 0.0
17/11:00am 19.4 14.0 15.1 76 2.5 NW 37 48 20 26 1005.2 1005.2 0.0
17/10:40am 20.8 17.1 15.1 70 3.4 WNW 28 48 15 26 1005.2 1005.2 0.0
17/10:30am 20.6 16.9 14.9 70 3.4 WNW 28 43 15 23 1005.2 1005.2 0.0
17/10:00am 19.9 15.6 14.5 71 3.2 WNW 30 44 16 24 1005.3 1005.3 0.0
17/09:30am 19.6 14.9 14.4 72 3.0 WNW 32 39 17 21 1005.5 1005.5 0.0
17/09:00am 19.9 15.8 14.9 73 2.9 WNW 30 41 16 22 1005.4 1005.4 0.2
17/08:30am 19.8 16.9 15.0 74 2.8 WNW 24 37 13 20 1005.1 1005.1 0.2
17/08:00am 18.6 15.5 15.5 82 1.8 WNW 26 35 14 19 1004.9 1004.9 0.2
17/07:30am 16.8 13.7 14.6 87 1.3 WNW 24 32 13 17 1004.6 1004.6 0.2
17/07:00am 16.7 14.0 14.5 87 1.3 WNW 22 30 12 16 1004.3 1004.3 0.2
17/06:30am 16.7 14.6 14.7 88 1.2 WNW 19 28 10 15 1004.3 1004.3 0.2
17/06:00am 16.5 12.6 14.5 88 1.1 WNW 28 37 15 20 1004.0 1004.0 0.2
17/05:30am 16.3 12.5 14.7 90 0.9 WNW 28 39 15 21 1003.9 1003.9 0.2
17/05:00am 16.3 13.3 14.7 90 0.9 WNW 24 33 13 18 1003.6 1003.6 0.2
17/04:30am 16.2 11.6 14.7 91 0.9 WNW 32 44 17 24 1003.3 1003.3 0.2
17/04:00am 16.0 12.1 14.5 91 0.9 WNW 28 39 15 21 1003.4 1003.4 0.2
17/03:30am 15.6 11.7 14.3 92 0.7 NW 28 37 15 20 1003.4 1003.4 0.2
17/03:00am 15.8 13.1 14.5 92 0.7 WNW 22 30 12 16 1003.7 1003.7 0.2
17/02:30am 15.9 12.8 14.6 92 0.7 WNW 24 30 13 16 1004.0 1004.0 0.2
17/02:00am 15.4 12.5 14.1 92 0.7 NW 22 32 12 17 1004.1 1004.1 0.2
17/01:30am 15.0 12.4 13.7 92 0.7 NW 20 26 11 14 1004.1 1004.1 0.2
17/01:00am 15.3 12.8 14.0 92 0.7 NNW 20 24 11 13 1004.3 1004.3 0.2
17/12:30am 15.5 13.2 14.0 91 0.8 NNW 19 22 10 12 1004.5 1004.5 0.2
17/12:00am 15.6 13.3 14.1 91 0.9 NNW 19 24 10 13 1004.9 1004.9 0.2
 
Date/Time
EDT
Temp
°C
App
Temp
°C
Dew
Point
°C
Rel
Hum
%
Delta-T
°C
Wind Press
QNH
hPa
Press
MSL
hPa
Rain since
9am
mm
Dir  Spd
km/h
Gust
km/h
Spd
kts
Gust
kts
16/11:30pm 15.9 13.5 14.3 90 0.9 NW 20 28 11 15 1004.9 1004.9 0.2
16/11:00pm 15.9 12.7 14.3 90 0.9 NW 24 30 13 16 1004.9 1004.9 0.2
16/10:30pm 16.0 13.3 14.5 91 0.9 NW 22 30 12 16 1004.9 1004.9 0.2
16/10:00pm 16.1 13.0 14.5 90 0.9 NNW 24 32 13 17 1005.0 1005.0 0.2
16/09:30pm 16.4 14.3 14.6 89 1.0 NW 19 24 10 13 1004.6 1004.6 0.2
16/09:00pm 16.8 14.2 14.8 88 1.2 NNW 22 28 12 15 1004.7 1004.7 0.2
16/08:30pm 17.3 15.1 14.9 86 1.4 WNW 20 28 11 15 1004.4 1004.4 0.2
16/08:00pm 17.9 15.4 15.2 84 1.6 NW 22 32 12 17 1004.3 1004.3 0.2
16/07:30pm 19.0 16.5 15.1 78 2.3 WNW 22 33 12 18 1003.9 1003.9 0.2
16/07:00pm 19.5 14.9 15.2 76 2.5 WNW 33 43 18 23 1003.6 1003.6 0.2
16/06:30pm 21.0 17.7 14.9 68 3.6 NW 26 33 14 18 1003.2 1003.2 0.2
16/06:00pm 20.4 16.8 16.2 77 2.5 NNW 30 35 16 19 1003.0 1003.0 0.2
16/05:30pm 19.2 15.1 16.4 84 1.7 NNW 33 41 18 22 1002.8 1002.8 0.2
16/05:00pm 18.6 15.4 16.4 87 1.3 NNW 28 33 15 18 1003.1 1003.1 0.2
16/04:30pm 18.5 16.4 16.3 87 1.3 N 22 28 12 15 1002.9 1002.9 0.2
16/04:00pm 18.5 16.4 16.3 87 1.3 NNW 22 28 12 15 1003.1 1003.1 0.2
16/03:30pm 19.0 18.1 16.8 87 1.3 N 17 22 9 12 1003.3 1003.3 0.2
16/03:00pm 19.8 18.6 17.6 87 1.4 NNE 20 24 11 13 1003.5 1003.5 0.2
16/02:30pm 20.4 20.2 17.6 84 1.7 NE 15 20 8 11 1003.5 1003.5 0.2
16/02:00pm 19.8 20.4 17.6 87 1.4 NE 11 15 6 8 1003.8 1003.8 0.2
16/01:30pm 20.2 20.6 18.1 88 1.3 ESE 13 15 7 8 1003.9 1003.9 0.2
16/01:00pm 20.1 21.1 18.6 91 0.9 SE 11 17 6 9 1004.1 1004.1 0.2
16/12:30pm 19.5 19.2 18.2 92 0.8 SSE 17 24 9 13 1004.4 1004.4 0.0
16/12:00pm 19.2 17.8 18.0 93 0.7 S 22 26 12 14 1004.4 1004.4 0.0
16/11:30am 18.5 17.5 17.5 94 0.6 S 19 20 10 11 1005.1 1005.1 0.0
16/11:00am 18.5 17.9 17.5 94 0.6 S 17 19 9 10 1005.4 1005.4 0.0
16/10:30am 18.2 17.4 17.2 94 0.6 S 17 20 9 11 1005.7 1005.7 0.0
16/10:00am 17.9 17.8 16.9 94 0.6 S 13 17 7 9 1005.9 1005.9 0.0
16/09:30am 17.5 16.8 16.5 94 0.6 SSW 15 19 8 10 1006.2 1006.2 0.0
16/09:00am 17.5 16.1 16.5 94 0.6 S 19 20 10 11 1006.2 1006.2 11.2
16/08:30am 17.2 15.7 16.2 94 0.6 SSW 19 22 10 12 1006.6 1006.6 10.8
16/08:00am 16.9 15.6 15.9 94 0.6 SSW 17 19 9 10 1006.9 1006.9 10.4
16/07:30am 16.9 16.8 15.9 94 0.6 SSW 11 13 6 7 1007.0 1007.0 10.4
16/07:00am 16.8 17.4 15.8 94 0.6 SE 7 9 4 5 1006.9 1006.9 10.2
16/06:30am 16.7 17.3 15.7 94 0.6 SE 7 11 4 6 1006.8 1006.8 10.2
16/06:00am 16.5 18.3 15.5 94 0.6 CALM 0 0 0 0 1006.9 1006.9 10.2
16/05:30am 16.5 18.3 15.5 94 0.6 CALM 0 0 0 0 1007.1 1007.1 10.2
16/05:00am 16.5 15.5 15.5 94 0.6 NE 15 17 8 9 1006.6 1006.6 10.2
16/04:30am 16.5 15.8 15.5 94 0.6 N 13 17 7 9 1006.7 1006.7 10.2
16/04:00am 16.6 14.8 15.6 94 0.6 N 19 22 10 12 1006.2 1006.2 10.2
16/03:30am 16.6 13.5 15.6 94 0.6 N 26 35 14 19 1006.9 1006.9 10.2
16/03:10am 17.0 12.4 16.0 94 0.6 NNE 35 48 19 26 1007.3 1007.3 10.2
16/03:00am 17.0 14.1 16.0 94 0.6 NE 26 32 14 17 1007.3 1007.3 10.2
16/02:30am 17.1 15.5 16.1 94 0.6 ESE 19 26 10 14 1006.9 1006.9 10.2
16/02:00am 17.2 12.6 16.2 94 0.6 ESE 35 39 19 21 1006.4 1006.4 10.2
16/01:30am 17.2 13.0 16.1 93 0.7 E 33 39 18 21 1007.0 1007.0 10.0
16/01:00am 17.5 10.9 16.4 93 0.7 NE 46 57 25 31 1007.9 1007.9 9.4
16/12:30am 17.5 11.9 16.4 93 0.7 NE 41 46 22 25 1008.4 1008.4 9.2
16/12:00am 17.6 12.0 16.5 93 0.7 NE 41 54 22 29 1009.2 1009.2 9.2
 
Date/Time
EDT
Temp
°C
App
Temp
°C
Dew
Point
°C
Rel
Hum
%
Delta-T
°C
Wind Press
QNH
hPa
Press
MSL
hPa
Rain since
9am
mm
Dir  Spd
km/h
Gust
km/h
Spd
kts
Gust
kts
15/11:30pm 17.8 13.0 16.7 93 0.7 ENE 37 46 20 25 1009.1 1009.1 9.2
15/11:00pm 17.8 14.4 16.7 93 0.7 ENE 30 37 16 20 1009.3 1009.3 9.2
15/10:30pm 17.7 14.6 16.6 93 0.7 ENE 28 33 15 18 1009.6 1009.6 9.2
15/10:00pm 17.7 14.6 16.6 93 0.7 ENE 28 33 15 18 1010.1 1010.1 9.2
15/09:30pm 17.8 14.0 16.7 93 0.7 ENE 32 41 17 22 1010.8 1010.8 9.2
15/09:00pm 17.6 13.5 16.5 93 0.7 E 33 39 18 21 1010.5 1010.5 9.2
15/08:30pm 17.6 14.5 16.5 93 0.7 E 28 35 15 19 1010.5 1010.5 9.2
15/08:00pm 17.7 13.2 16.4 92 0.8 E 35 41 19 22 1011.0 1011.0 9.2
15/07:30pm 17.7 12.4 16.4 92 0.8 E 39 48 21 26 1010.2 1010.2 9.2
15/07:00pm 17.9 12.3 16.6 92 0.8 E 41 46 22 25 1009.7 1009.7 9.2
15/06:30pm 17.6 13.7 16.5 93 0.7 E 32 37 17 20 1009.8 1009.8 9.2
15/06:00pm 17.4 14.6 16.3 93 0.7 E 26 33 14 18 1009.9 1009.9 9.2
15/05:30pm 17.3 14.8 16.2 93 0.7 E 24 30 13 16 1010.2 1010.2 9.2
15/05:00pm 17.5 14.7 16.4 93 0.7 E 26 35 14 19 1010.5 1010.5 9.0
15/04:30pm 18.1 13.5 17.0 93 0.7 E 37 50 20 27 1009.5 1009.5 9.0
15/04:14pm 18.3 12.0 17.1 93 0.7 E 46 65 25 35 1009.4 1009.4 9.0
15/04:00pm 18.4 12.8 17.4 94 0.6 E 43 57 23 31 1009.2 1009.2 9.0
15/03:30pm 18.4 13.2 17.4 94 0.6 E 41 50 22 27 1009.3 1009.3 9.0
15/03:00pm 17.7 12.3 16.9 95 0.5 E 41 56 22 30 1009.5 1009.5 9.0
15/02:30pm 17.5 12.7 16.5 94 0.6 ENE 37 46 20 25 1011.2 1011.2 8.6
15/02:00pm 17.7 11.7 16.9 95 0.5 NE 44 54 24 29 1011.7 1011.7 8.6
15/01:30pm 17.8 10.3 17.0 95 0.5 NE 52 63 28 34 1011.5 1011.5 8.2
15/01:00pm 17.5 11.0 16.7 95 0.5 ENE 46 57 25 31 1011.5 1011.5 8.0
15/12:30pm 18.0 12.1 17.2 95 0.5 E 44 54 24 29 1011.3 1011.3 8.0
15/12:00pm 17.9 12.2 17.1 95 0.5 ENE 43 50 23 27 1011.8 1011.8 8.0
15/11:30am 17.4 10.9 16.6 95 0.5 ENE 46 56 25 30 1011.4 1011.4 8.0
15/11:00am 17.5 9.9 16.7 95 0.5 ENE 52 61 28 33 1012.4 1012.4 6.6
15/10:30am 17.1 11.4 16.3 95 0.5 E 41 52 22 28 1012.9 1012.9 5.8
15/10:00am 17.0 10.3 16.2 95 0.5 E 46 61 25 33 1012.3 1012.3 2.8
15/09:30am 17.1 11.0 16.3 95 0.5 E 43 52 23 28 1012.6 1012.6 0.2
15/09:00am 17.0 11.7 16.2 95 0.5 E 39 54 21 29 1012.8 1012.8 32.6
15/08:30am 16.8 11.4 16.0 95 0.5 E 39 46 21 25 1012.9 1012.9 32.6
15/08:00am 16.7 10.9 15.9 95 0.5 ESE 41 52 22 28 1012.7 1012.7 32.6
15/07:30am 16.5 11.0 15.7 95 0.5 ESE 39 46 21 25 1012.9 1012.9 30.8
15/07:00am 16.4 12.2 15.6 95 0.5 SE 32 39 17 21 1013.3 1013.3 30.4
15/06:30am 16.3 11.8 15.5 95 0.5 SE 33 43 18 23 1013.5 1013.5 29.2
15/06:00am 16.2 11.3 15.2 94 0.6 SE 35 46 19 25 1013.3 1013.3 28.0
15/05:30am 16.2 11.6 15.2 94 0.6 SE 33 44 18 24 1013.2 1013.2 25.4
15/05:00am 16.3 11.4 15.3 94 0.6 SE 35 46 19 25 1013.3 1013.3 19.2
15/04:30am 16.4 10.7 15.3 93 0.6 SE 39 50 21 27 1013.3 1013.3 14.0
15/04:00am 16.5 11.2 15.4 93 0.6 SE 37 48 20 26 1013.2 1013.2 11.2
15/03:30am 16.4 11.9 15.3 93 0.6 SE 33 44 18 24 1013.3 1013.3 11.2
15/03:00am 16.5 12.0 15.4 93 0.6 SE 33 43 18 23 1013.8 1013.8 11.2
15/02:30am 16.5 12.0 15.4 93 0.6 SE 33 43 18 23 1014.1 1014.1 11.2
15/02:00am 16.5 12.0 15.4 93 0.6 SE 33 41 18 22 1014.4 1014.4 11.2
15/01:30am 16.5 12.6 15.4 93 0.6 SE 30 39 16 21 1014.7 1014.7 11.2
15/01:00am 16.6 12.1 15.5 93 0.6 ESE 33 39 18 21 1015.0 1015.0 11.2
15/12:30am 16.6 12.4 15.6 94 0.6 ESE 32 39 17 21 1015.2 1015.2 11.2
15/12:00am 16.5 11.7 15.5 94 0.6 ESE 35 43 19 23 1015.2 1015.2 11.2
 
Date/Time
EDT
Temp
°C
App
Temp
°C
Dew
Point
°C
Rel
Hum
%
Delta-T
°C
Wind Press
QNH
hPa
Press
MSL
hPa
Rain since
9am
mm
Dir  Spd
km/h
Gust
km/h
Spd
kts
Gust
kts
14/11:30pm 16.5 10.9 15.5 94 0.6 ESE 39 46 21 25 1015.1 1015.1 11.2
14/11:00pm 16.4 11.1 15.4 94 0.6 ESE 37 46 20 25 1015.0 1015.0 11.2
14/10:30pm 16.3 10.6 15.3 94 0.6 ESE 39 46 21 25 1015.1 1015.1 11.2
14/10:00pm 16.4 11.1 15.4 94 0.6 ESE 37 44 20 24 1015.4 1015.4 10.0
14/09:30pm 16.4 10.8 15.4 94 0.6 ESE 39 44 21 24 1015.2 1015.2 8.6
14/09:00pm 16.4 12.1 15.4 94 0.6 ESE 32 41 17 22 1014.9 1014.9 8.6

Other Formats:

Comma delimited format used in spreadsheet applications
http://www.bom.gov.au/fwo/IDT60801/IDT60801.94983.axf

JavaScript Object Notation format (JSON) in row-major order
http://www.bom.gov.au/fwo/IDT60801/IDT60801.94983.json